サルタ の空港の天気 - METARとTAF

サルタ空港 ( SASA / SLA ) - アルゼンチン サルタ州、Salta
飛行場実況気象(Metar)
観測時間07/20 08:00 ART (07/20 11:00 UTC)
風向・風速南西 2m/s
視程10km以上
天気現象
全天の8割程度の雲 雲底高度 610m
気温10℃
湿度94%
気圧1014hPa
METARSASA 201100Z 23003KT 9999 BKN020 10/09 Q1014
過去の天気等 Google飛行場航空写真 Wunderground天気予報

過去48時間のMETAR

飛行場予報(TAF)
発表時間: 7/20 08:00 ART (7/20 11:00 UTC)
予報対象時間: 20日9時 ART ~ 21日9時 ART
風向・風速南西 3m/s
視程8000m
全天の4割程度の雲 雲底高度 610m
20日11時 ART ~ 20日13時 ART に徐々に
風向・風速北東 3m/s
視程10km以上
全天の8割程度の雲 雲底高度 760m
TAF SASA 201100Z 2012/2112 23005KT 8000 SCT020 TX26/2018Z TN14/2110Z
BECMG 2014/2016 05005KT 9999 BKN025